createdAt,value
2023-02-13T00:01:48.000Z,75.51
2023-02-13T00:06:51.538Z,76.56
2023-02-13T00:11:55.107Z,77.47
2023-02-13T00:16:58.736Z,77.99
2023-02-13T00:22:02.301Z,78.15
2023-02-13T00:27:05.385Z,78.21
2023-02-13T00:32:09.983Z,77.41
2023-02-13T00:37:13.414Z,78.71
2023-02-13T00:42:17.070Z,79.22
2023-02-13T00:47:21.803Z,79.44
2023-02-13T00:52:25.981Z,78.26
2023-02-13T00:57:31.493Z,77.34
2023-02-13T01:02:36.441Z,77.28
2023-02-13T01:07:40.067Z,77.19
2023-02-13T01:12:43.861Z,77.77
2023-02-13T01:17:47.705Z,78.22
2023-02-13T01:22:51.673Z,78.18
2023-02-13T01:27:55.476Z,78.66
2023-02-13T01:32:58.981Z,78.87
2023-02-13T01:38:02.497Z,79.47
2023-02-13T01:43:09.867Z,80.31
2023-02-13T01:48:18.932Z,80.52
2023-02-13T01:53:27.885Z,80.17
2023-02-13T01:58:35.461Z,76.65
2023-02-13T02:04:01.659Z,78.71
2023-02-13T02:09:20.340Z,79.26
2023-02-13T02:14:24.539Z,80.75
2023-02-13T02:19:43.531Z,82.12
2023-02-13T02:25:05.871Z,83.22
2023-02-13T02:30:22.233Z,83.78
2023-02-13T02:35:51.285Z,85.54
2023-02-13T02:41:35.791Z,84.84
2023-02-13T02:47:08.141Z,85.13
2023-02-13T02:52:46.310Z,84.90
2023-02-13T02:58:32.693Z,85.44
2023-02-13T03:03:57.198Z,85.06
2023-02-13T03:09:22.850Z,85.08
2023-02-13T03:14:28.727Z,85.06
2023-02-13T03:19:53.186Z,84.41
2023-02-13T03:25:15.946Z,83.19
2023-02-13T03:30:29.341Z,82.20
2023-02-13T03:36:02.009Z,81.71
2023-02-13T03:41:21.086Z,80.67
2023-02-13T03:46:27.674Z,79.64
2023-02-13T03:51:39.653Z,79.21
2023-02-13T03:57:02.956Z,79.97
2023-02-13T04:02:17.513Z,80.32
2023-02-13T04:07:33.122Z,79.90
2023-02-13T04:12:47.255Z,79.93
2023-02-13T04:17:59.955Z,79.81
2023-02-13T04:23:10.637Z,80.15
2023-02-13T04:28:13.815Z,79.01
2023-02-13T04:33:17.708Z,77.04
2023-02-13T04:38:20.894Z,76.84
2023-02-13T04:43:25.617Z,77.76
2023-02-13T04:48:29.097Z,78.20
2023-02-13T04:53:33.196Z,79.42
2023-02-13T04:58:36.964Z,79.09
2023-02-13T05:03:40.673Z,78.92
2023-02-13T05:08:43.660Z,78.77
2023-02-13T05:13:47.117Z,78.11
2023-02-13T05:18:50.219Z,77.48
2023-02-13T05:23:54.081Z,77.62
2023-02-13T05:29:17.031Z,77.77
2023-02-13T05:34:24.669Z,78.49
2023-02-13T05:39:30.687Z,78.83
2023-02-13T05:44:33.942Z,78.92
2023-02-13T05:49:37.941Z,79.10
2023-02-13T05:54:41.220Z,79.22
2023-02-13T05:59:44.400Z,79.56
2023-02-13T06:04:47.809Z,79.99
2023-02-13T06:09:52.139Z,80.09
2023-02-13T06:14:55.260Z,79.19
2023-02-13T06:19:59.096Z,78.78
2023-02-13T06:25:02.400Z,78.43
2023-02-13T06:30:06.120Z,78.19
2023-02-13T06:35:10.240Z,77.83
2023-02-13T06:40:15.700Z,77.52
2023-02-13T06:45:19.796Z,77.12
2023-02-13T06:50:23.823Z,76.94
2023-02-13T06:55:28.514Z,77.21
2023-02-13T07:00:32.253Z,77.48
2023-02-13T07:05:35.882Z,77.87
2023-02-13T07:10:40.856Z,78.46
2023-02-13T07:15:44.408Z,78.04
2023-02-13T07:20:47.541Z,77.21
2023-02-13T07:25:50.638Z,75.78
2023-02-13T07:30:56.438Z,75.35
2023-02-13T07:36:00.108Z,74.93
2023-02-13T07:41:04.608Z,74.09
2023-02-13T07:46:08.387Z,73.80
2023-02-13T07:51:11.871Z,72.55
2023-02-13T07:56:15.908Z,75.08
2023-02-13T08:01:20.362Z,74.81
2023-02-13T08:06:23.925Z,70.62
2023-02-13T08:11:52.993Z,69.43
2023-02-13T08:16:56.862Z,59.92
2023-02-13T08:22:00.484Z,53.39
2023-02-13T08:27:04.279Z,55.89
2023-02-13T08:32:07.999Z,55.59
2023-02-13T08:37:11.892Z,59.83
2023-02-13T08:42:16.393Z,59.42
2023-02-13T08:47:19.795Z,57.55
2023-02-13T08:52:23.101Z,57.59
2023-02-13T08:57:26.735Z,57.60
2023-02-13T09:02:30.218Z,57.46
2023-02-13T09:07:33.607Z,56.10
2023-02-13T09:12:37.853Z,54.54
2023-02-13T09:17:42.029Z,58.01
2023-02-13T09:22:45.314Z,56.87
2023-02-13T09:27:49.145Z,61.32
2023-02-13T09:32:53.801Z,64.20
2023-02-13T09:37:58.084Z,66.13
2023-02-13T09:43:27.904Z,65.49
2023-02-13T09:48:37.326Z,60.43
2023-02-13T09:53:43.760Z,60.43
2023-02-13T09:58:49.830Z,59.86
2023-02-13T10:04:07.804Z,59.43
2023-02-13T10:09:37.025Z,56.98
2023-02-13T10:15:21.771Z,58.84
2023-02-13T10:20:45.727Z,50.70
2023-02-13T10:26:03.214Z,52.77
2023-02-13T10:31:12.969Z,48.22
2023-02-13T10:37:13.683Z,47.79
2023-02-13T10:42:45.866Z,48.55
2023-02-13T10:48:08.748Z,46.35
2023-02-13T10:53:51.376Z,50.70
2023-02-13T10:59:23.662Z,50.78
2023-02-13T11:04:30.102Z,52.50
2023-02-13T11:09:38.566Z,55.95
2023-02-13T11:14:54.897Z,56.08
2023-02-13T11:20:01.747Z,57.13
2023-02-13T11:25:17.833Z,52.45
2023-02-13T11:30:23.648Z,48.70
2023-02-13T11:35:31.552Z,49.63
2023-02-13T11:40:36.174Z,47.15
2023-02-13T11:45:41.017Z,45.12
2023-02-13T11:50:51.501Z,44.10
2023-02-13T11:56:20.939Z,42.07
2023-02-13T12:01:26.959Z,41.71
2023-02-13T12:06:31.359Z,39.51
2023-02-13T12:11:37.516Z,39.69
2023-02-13T12:16:45.834Z,39.17
2023-02-13T12:22:15.409Z,38.05
2023-02-13T12:27:50.056Z,37.43
2023-02-13T12:33:29.114Z,36.47
2023-02-13T12:38:35.165Z,38.41
2023-02-13T12:43:59.985Z,35.52
2023-02-13T12:49:17.990Z,35.75
2023-02-13T12:54:47.196Z,36.04
2023-02-13T13:00:30.731Z,38.12
2023-02-13T13:06:08.829Z,35.08
2023-02-13T13:11:19.701Z,37.77
2023-02-13T13:16:45.539Z,37.56
2023-02-13T13:21:55.327Z,38.59
2023-02-13T13:27:01.321Z,37.61
2023-02-13T13:32:08.963Z,37.27
2023-02-13T13:37:19.972Z,38.32
2023-02-13T13:42:44.312Z,36.88
2023-02-13T13:47:57.242Z,37.46
2023-02-13T13:53:20.809Z,37.32
2023-02-13T13:58:35.895Z,35.83
2023-02-13T14:03:40.556Z,36.45
2023-02-13T14:08:46.916Z,35.76
2023-02-13T14:13:50.563Z,34.36
2023-02-13T14:18:54.066Z,34.89
2023-02-13T14:24:04.170Z,34.54
2023-02-13T14:29:10.706Z,36.03
2023-02-13T14:34:20.971Z,37.76
2023-02-13T14:39:36.155Z,38.12
2023-02-13T14:44:52.967Z,37.12
2023-02-13T14:49:58.507Z,37.53
2023-02-13T14:55:17.240Z,38.07
2023-02-13T15:00:34.956Z,38.96
2023-02-13T15:05:38.417Z,39.26
2023-02-13T15:10:47.821Z,40.54
2023-02-13T15:15:57.708Z,42.52
2023-02-13T15:21:02.003Z,42.96
2023-02-13T15:26:07.631Z,42.29
2023-02-13T15:31:24.829Z,43.27
2023-02-13T15:36:36.824Z,44.34
2023-02-13T15:41:44.134Z,46.64
2023-02-13T15:46:48.874Z,55.75
2023-02-13T15:52:03.726Z,54.37
2023-02-13T15:57:07.737Z,54.85
2023-02-13T16:02:29.028Z,56.35
2023-02-13T16:07:51.511Z,57.73
2023-02-13T16:12:56.418Z,58.39
2023-02-13T16:18:00.104Z,65.93
2023-02-13T16:23:14.264Z,70.61
2023-02-13T16:28:25.103Z,71.88
2023-02-13T16:33:30.211Z,70.18
2023-02-13T16:38:41.220Z,64.14
2023-02-13T16:43:53.495Z,60.71
2023-02-13T16:48:56.803Z,59.98
2023-02-13T16:54:03.979Z,58.51
2023-02-13T16:59:26.424Z,58.39
2023-02-13T17:04:31.960Z,58.11
2023-02-13T17:09:35.227Z,57.83
2023-02-13T17:14:38.820Z,58.77
2023-02-13T17:19:42.419Z,60.13
2023-02-13T17:24:45.388Z,58.73
2023-02-13T17:29:48.388Z,59.53
2023-02-13T17:34:51.566Z,58.69
2023-02-13T17:39:55.955Z,59.62
2023-02-13T17:44:59.940Z,61.92
2023-02-13T17:50:09.844Z,60.37
2023-02-13T17:55:27.654Z,59.88
2023-02-13T18:00:34.168Z,60.02
2023-02-13T18:05:37.847Z,61.33
2023-02-13T18:10:41.155Z,61.92
2023-02-13T18:15:46.456Z,61.77
2023-02-13T18:20:56.473Z,62.33
2023-02-13T18:26:09.678Z,64.94
2023-02-13T18:31:14.034Z,64.52
2023-02-13T18:36:18.062Z,63.10
2023-02-13T18:41:22.072Z,63.99
2023-02-13T18:46:25.959Z,64.55
2023-02-13T18:51:30.146Z,64.37
2023-02-13T18:56:33.774Z,63.13
2023-02-13T19:01:37.107Z,63.96
2023-02-13T19:06:42.468Z,64.15
2023-02-13T19:11:45.676Z,64.30
2023-02-13T19:16:48.678Z,66.40
2023-02-13T19:21:51.720Z,65.64
2023-02-13T19:26:55.596Z,66.33
2023-02-13T19:31:58.684Z,65.76
2023-02-13T19:37:02.346Z,66.20
2023-02-13T19:42:06.048Z,66.20
2023-02-13T19:47:09.543Z,66.32
2023-02-13T19:52:13.223Z,66.38
2023-02-13T19:57:16.667Z,67.01
2023-02-13T20:02:21.785Z,67.10
2023-02-13T20:07:24.993Z,67.41
2023-02-13T20:12:28.080Z,67.64
2023-02-13T20:17:31.942Z,68.46
2023-02-13T20:22:35.750Z,68.56
2023-02-13T20:27:42.575Z,68.49
2023-02-13T20:32:46.405Z,68.69
2023-02-13T20:37:49.728Z,68.62
2023-02-13T20:42:53.758Z,69.24
2023-02-13T20:47:57.222Z,70.36
2023-02-13T20:53:00.831Z,70.67
2023-02-13T20:58:04.580Z,70.22
2023-02-13T21:03:08.477Z,69.76
2023-02-13T21:08:12.433Z,70.32
2023-02-13T21:13:15.405Z,70.35
2023-02-13T21:18:21.332Z,70.68
2023-02-13T21:23:24.445Z,71.92
2023-02-13T21:28:28.475Z,71.84
2023-02-13T21:33:31.423Z,73.34
2023-02-13T21:38:36.150Z,73.45
2023-02-13T21:43:42.322Z,74.93
2023-02-13T21:48:46.622Z,75.61
2023-02-13T21:53:52.137Z,76.26
2023-02-13T21:58:56.962Z,77.48
2023-02-13T22:04:03.519Z,77.76
2023-02-13T22:09:10.277Z,79.03
2023-02-13T22:14:17.364Z,80.10
2023-02-13T22:19:21.782Z,80.57
2023-02-13T22:24:24.878Z,81.01
2023-02-13T22:29:28.318Z,80.66
2023-02-13T22:34:31.819Z,80.39
2023-02-13T22:39:35.025Z,79.76
2023-02-13T22:44:38.571Z,79.64
2023-02-13T22:49:41.620Z,80.66
2023-02-13T22:54:45.001Z,80.43
2023-02-13T22:59:47.913Z,80.03
2023-02-13T23:04:51.409Z,80.30
2023-02-13T23:09:55.295Z,80.77
2023-02-13T23:14:59.117Z,79.90
2023-02-13T23:20:02.485Z,79.90
2023-02-13T23:25:06.300Z,80.16
2023-02-13T23:30:10.734Z,79.78
2023-02-13T23:35:13.760Z,79.18
2023-02-13T23:40:18.396Z,78.13
2023-02-13T23:45:21.421Z,79.76
2023-02-13T23:50:25.355Z,78.40
2023-02-13T23:55:29.006Z,78.65
